createdAt,value
2018-07-07T00:00:16.630Z,81.5
2018-07-07T00:01:16.734Z,81.3
2018-07-07T00:02:17.007Z,81.2
2018-07-07T00:03:16.277Z,81.2
2018-07-07T00:04:16.606Z,81.3
2018-07-07T00:05:16.896Z,81.6
2018-07-07T00:06:17.260Z,81.6
2018-07-07T00:07:16.558Z,81.8
2018-07-07T00:08:16.848Z,82.0
2018-07-07T00:09:17.152Z,82.0
2018-07-07T00:10:16.460Z,81.9
2018-07-07T00:11:16.461Z,82.0
2018-07-07T00:12:16.724Z,82.0
2018-07-07T00:13:16.990Z,82.0
2018-07-07T00:14:16.254Z,82.1
2018-07-07T00:15:16.521Z,82.0
2018-07-07T00:16:16.784Z,82.0
2018-07-07T00:17:17.051Z,82.0
2018-07-07T00:18:16.313Z,82.4
2018-07-07T00:19:16.570Z,82.3
2018-07-07T00:20:16.844Z,82.1
2018-07-07T00:21:16.857Z,82.3
2018-07-07T00:22:17.113Z,82.4
2018-07-07T00:23:16.375Z,82.0
2018-07-07T00:24:16.642Z,81.8
2018-07-07T00:25:16.904Z,82.1
2018-07-07T00:26:17.169Z,82.0
2018-07-07T00:27:16.562Z,82.0
2018-07-07T00:28:16.876Z,82.3
2018-07-07T00:29:17.141Z,82.5
2018-07-07T00:30:16.415Z,83.0
2018-07-07T00:31:16.462Z,82.9
2018-07-07T00:32:16.722Z,82.5
2018-07-07T00:33:16.987Z,82.6
2018-07-07T00:34:17.249Z,82.7
2018-07-07T00:35:16.510Z,83.1
2018-07-07T00:36:16.769Z,81.5
2018-07-07T00:37:17.034Z,81.8
2018-07-07T00:38:16.292Z,82.1
2018-07-07T00:39:16.555Z,81.4
2018-07-07T00:40:16.830Z,81.1
2018-07-07T00:41:16.869Z,81.0
2018-07-07T00:42:17.126Z,81.1
2018-07-07T00:43:16.392Z,81.2
2018-07-07T00:44:16.657Z,81.5
2018-07-07T00:45:16.920Z,81.6
2018-07-07T00:46:17.179Z,81.6
2018-07-07T00:47:16.440Z,82.0
2018-07-07T00:48:16.699Z,82.2
2018-07-07T00:49:16.961Z,82.1
2018-07-07T00:50:17.509Z,82.3
2018-07-07T00:51:16.275Z,82.0
2018-07-07T00:52:16.540Z,81.3
2018-07-07T00:53:16.794Z,81.7
2018-07-07T00:54:17.061Z,81.8
2018-07-07T00:55:16.316Z,81.4
2018-07-07T00:56:16.584Z,81.7
2018-07-07T00:57:16.837Z,81.8
2018-07-07T00:58:17.096Z,81.6
2018-07-07T00:59:16.364Z,81.8
2018-07-07T01:00:16.659Z,82.1
2018-07-07T01:01:16.679Z,82.2
2018-07-07T01:02:16.938Z,82.3
2018-07-07T01:03:17.198Z,82.5
2018-07-07T01:04:16.462Z,82.5
2018-07-07T01:05:16.738Z,82.3
2018-07-07T01:06:17.011Z,82.5
2018-07-07T01:07:16.271Z,82.9
2018-07-07T01:08:16.536Z,82.8
2018-07-07T01:09:16.811Z,82.4
2018-07-07T01:10:17.393Z,82.2
2018-07-07T01:11:17.150Z,82.3
2018-07-07T01:12:16.430Z,82.4
2018-07-07T01:13:16.686Z,82.5
2018-07-07T01:14:16.943Z,82.5
2018-07-07T01:15:17.206Z,82.7
2018-07-07T01:16:16.463Z,82.8
2018-07-07T01:17:16.731Z,83.1
2018-07-07T01:18:16.992Z,83.2
2018-07-07T01:19:16.248Z,83.3
2018-07-07T01:20:16.540Z,83.6
2018-07-07T01:21:16.572Z,83.7
2018-07-07T01:22:16.835Z,83.8
2018-07-07T01:23:17.103Z,83.8
2018-07-07T01:24:16.361Z,83.9
2018-07-07T01:25:16.620Z,83.9
2018-07-07T01:26:16.882Z,83.7
2018-07-07T01:27:17.159Z,83.6
2018-07-07T01:28:16.421Z,83.7
2018-07-07T01:29:16.685Z,83.7
2018-07-07T01:30:16.951Z,83.9
2018-07-07T01:31:16.995Z,83.9
2018-07-07T01:32:16.260Z,84.2
2018-07-07T01:33:16.521Z,84.3
2018-07-07T01:34:16.787Z,84.3
2018-07-07T01:35:17.056Z,84.3
2018-07-07T01:36:16.318Z,84.4
2018-07-07T01:37:16.572Z,84.7
2018-07-07T01:38:16.832Z,84.7
2018-07-07T01:39:17.088Z,84.6
2018-07-07T01:40:16.368Z,84.5
2018-07-07T01:41:16.413Z,84.2
2018-07-07T01:42:16.669Z,84.2
2018-07-07T01:43:16.928Z,84.4
2018-07-07T01:44:17.191Z,84.5
2018-07-07T01:45:16.451Z,84.6
2018-07-07T01:46:16.710Z,84.9
2018-07-07T01:47:16.968Z,84.9
2018-07-07T01:48:17.227Z,84.8
2018-07-07T01:49:16.486Z,84.8
2018-07-07T01:50:16.760Z,84.9
2018-07-07T01:51:16.798Z,85.0
2018-07-07T01:52:17.067Z,84.9
2018-07-07T01:53:16.328Z,84.8
2018-07-07T01:54:16.586Z,84.9
2018-07-07T01:55:16.850Z,84.7
2018-07-07T01:56:17.381Z,84.8
2018-07-07T01:57:16.637Z,84.8
2018-07-07T01:58:16.893Z,84.8
2018-07-07T01:59:17.144Z,84.8
2018-07-07T02:00:16.413Z,84.8
2018-07-07T02:01:16.460Z,84.8
2018-07-07T02:02:16.728Z,84.9
2018-07-07T02:03:16.987Z,85.0
2018-07-07T02:04:17.241Z,84.9
2018-07-07T02:05:16.510Z,85.2
2018-07-07T02:06:16.774Z,85.3
2018-07-07T02:07:17.029Z,85.7
2018-07-07T02:08:16.295Z,85.9
2018-07-07T02:09:16.558Z,86.2
2018-07-07T02:10:16.828Z,86.1
2018-07-07T02:11:16.873Z,86.1
2018-07-07T02:12:17.136Z,85.9
2018-07-07T02:13:16.393Z,85.9
2018-07-07T02:14:16.688Z,85.9
2018-07-07T02:15:16.959Z,86.0
2018-07-07T02:16:17.235Z,86.0
2018-07-07T02:17:16.491Z,86.3
2018-07-07T02:18:16.753Z,86.5
2018-07-07T02:19:17.013Z,86.5
2018-07-07T02:20:16.283Z,86.6
2018-07-07T02:21:16.322Z,86.5
2018-07-07T02:22:16.580Z,86.7
2018-07-07T02:23:16.837Z,86.7
2018-07-07T02:24:17.099Z,86.8
2018-07-07T02:25:16.368Z,86.7
2018-07-07T02:26:16.637Z,86.9
2018-07-07T02:27:16.911Z,86.9
2018-07-07T02:28:17.165Z,86.1
2018-07-07T02:29:16.425Z,86.8
2018-07-07T02:30:16.732Z,85.5
2018-07-07T02:31:16.728Z,84.5
2018-07-07T02:32:16.992Z,84.7
2018-07-07T02:33:16.261Z,85.0
2018-07-07T02:34:16.528Z,85.3
2018-07-07T02:35:16.787Z,85.5
2018-07-07T02:36:17.049Z,85.8
2018-07-07T02:37:16.308Z,85.9
2018-07-07T02:38:16.573Z,85.9
2018-07-07T02:39:16.838Z,85.9
2018-07-07T02:40:17.117Z,85.8
2018-07-07T02:41:17.153Z,85.5
2018-07-07T02:42:16.420Z,85.7
2018-07-07T02:43:16.681Z,86.0
2018-07-07T02:44:16.947Z,85.7
2018-07-07T02:45:17.210Z,85.0
2018-07-07T02:46:16.491Z,83.6
2018-07-07T02:47:16.790Z,84.0
2018-07-07T02:48:17.054Z,84.9
2018-07-07T02:49:16.324Z,85.2
2018-07-07T02:50:16.592Z,85.5
2018-07-07T02:51:16.635Z,85.9
2018-07-07T02:52:16.908Z,86.4
2018-07-07T02:53:17.171Z,85.9
2018-07-07T02:54:16.437Z,86.4
2018-07-07T02:55:16.698Z,86.0
2018-07-07T02:56:16.966Z,86.3
2018-07-07T02:57:17.230Z,86.1
2018-07-07T02:58:16.499Z,86.2
2018-07-07T02:59:16.753Z,86.2
2018-07-07T03:00:17.042Z,86.3
2018-07-07T03:01:17.089Z,86.4
2018-07-07T03:02:16.346Z,86.9
2018-07-07T03:03:16.731Z,87.0
2018-07-07T03:04:17.006Z,87.2
2018-07-07T03:05:16.275Z,87.5
2018-07-07T03:06:16.542Z,87.5
2018-07-07T03:07:16.813Z,87.5
2018-07-07T03:08:17.081Z,87.2
2018-07-07T03:09:16.345Z,87.4
2018-07-07T03:10:16.808Z,87.6
2018-07-07T03:11:16.657Z,87.6
2018-07-07T03:12:16.933Z,87.4
2018-07-07T03:13:17.197Z,87.2
2018-07-07T03:14:16.469Z,87.0
2018-07-07T03:15:16.740Z,86.9
2018-07-07T03:16:17.021Z,87.1
2018-07-07T03:17:16.278Z,87.1
2018-07-07T03:18:16.542Z,87.4
2018-07-07T03:19:16.813Z,87.4
2018-07-07T03:20:17.095Z,87.5
2018-07-07T03:21:17.129Z,87.4
2018-07-07T03:22:16.395Z,87.5
2018-07-07T03:23:16.659Z,87.7
2018-07-07T03:24:16.922Z,87.7
2018-07-07T03:25:17.184Z,87.7
2018-07-07T03:26:16.441Z,87.7
2018-07-07T03:27:16.694Z,87.1
2018-07-07T03:28:16.952Z,86.9
2018-07-07T03:29:17.420Z,86.9
2018-07-07T03:30:16.694Z,86.9
2018-07-07T03:31:16.731Z,86.9
2018-07-07T03:32:16.995Z,86.4
2018-07-07T03:33:16.256Z,85.9
2018-07-07T03:34:16.521Z,85.9
2018-07-07T03:35:16.791Z,85.8
2018-07-07T03:36:17.065Z,86.0
2018-07-07T03:37:16.333Z,86.0
2018-07-07T03:38:16.598Z,86.0
2018-07-07T03:39:16.861Z,85.7
2018-07-07T03:40:17.141Z,85.9
2018-07-07T03:41:17.179Z,85.9
2018-07-07T03:42:16.628Z,85.8
2018-07-07T03:43:16.893Z,85.7
2018-07-07T03:44:17.180Z,85.9
2018-07-07T03:45:16.463Z,85.9
2018-07-07T03:46:16.719Z,85.5
2018-07-07T03:47:16.983Z,85.4
2018-07-07T03:48:17.244Z,85.3
2018-07-07T03:49:16.597Z,85.3
2018-07-07T03:50:16.870Z,85.2
2018-07-07T03:51:16.893Z,85.1
2018-07-07T03:52:17.160Z,85.2
2018-07-07T03:53:16.424Z,84.2
2018-07-07T03:54:16.678Z,84.5
2018-07-07T03:55:16.943Z,84.0
2018-07-07T03:56:17.204Z,82.5
2018-07-07T03:57:16.463Z,82.5
2018-07-07T03:58:16.734Z,82.5
2018-07-07T03:59:16.999Z,82.8
2018-07-07T04:00:16.289Z,82.8
2018-07-07T04:01:16.298Z,82.9
2018-07-07T04:02:16.558Z,82.8
2018-07-07T04:03:16.818Z,82.8
2018-07-07T04:04:17.084Z,83.1
2018-07-07T04:05:16.350Z,83.3
2018-07-07T04:06:16.594Z,83.6
2018-07-07T04:07:16.896Z,82.6
2018-07-07T04:08:17.213Z,82.7
2018-07-07T04:09:16.478Z,82.7
2018-07-07T04:10:17.212Z,82.6
2018-07-07T04:11:16.797Z,82.5
2018-07-07T04:12:17.059Z,82.0
2018-07-07T04:13:16.319Z,81.8
2018-07-07T04:14:16.581Z,81.7
2018-07-07T04:15:16.844Z,81.2
2018-07-07T04:16:17.109Z,81.5
2018-07-07T04:17:16.366Z,81.6
2018-07-07T04:18:16.629Z,81.1
2018-07-07T04:19:16.894Z,81.1
2018-07-07T04:20:17.173Z,81.6
2018-07-07T04:21:17.204Z,81.1
2018-07-07T04:22:16.464Z,80.2
2018-07-07T04:23:16.720Z,79.1
2018-07-07T04:24:16.980Z,79.4
2018-07-07T04:25:17.260Z,79.0
2018-07-07T04:26:16.538Z,78.9
2018-07-07T04:27:16.802Z,79.0
2018-07-07T04:28:17.061Z,79.2
2018-07-07T04:29:16.322Z,79.5
2018-07-07T04:30:16.593Z,79.6
2018-07-07T04:31:16.632Z,79.3
2018-07-07T04:32:16.895Z,79.4
2018-07-07T04:33:17.157Z,79.6
2018-07-07T04:34:16.424Z,79.8
2018-07-07T04:35:16.729Z,79.4
2018-07-07T04:36:16.985Z,79.8
2018-07-07T04:37:17.246Z,80.1
2018-07-07T04:38:16.508Z,80.9
2018-07-07T04:39:16.772Z,81.1
2018-07-07T04:40:17.040Z,81.3
2018-07-07T04:41:17.085Z,80.0
2018-07-07T04:42:16.340Z,79.1
2018-07-07T04:43:16.604Z,79.8
2018-07-07T04:44:16.868Z,80.2
2018-07-07T04:45:17.156Z,80.7
2018-07-07T04:46:16.426Z,80.2
2018-07-07T04:47:16.688Z,80.3
2018-07-07T04:48:16.953Z,80.9
2018-07-07T04:49:17.218Z,80.7
2018-07-07T04:50:16.496Z,80.0
2018-07-07T04:51:16.526Z,80.4
2018-07-07T04:52:16.826Z,80.2
2018-07-07T04:53:17.096Z,80.0
2018-07-07T04:54:16.357Z,77.8
2018-07-07T04:55:16.631Z,77.9
2018-07-07T04:56:16.898Z,78.5
2018-07-07T04:57:17.200Z,78.3
2018-07-07T04:58:16.476Z,78.7
2018-07-07T04:59:16.739Z,78.4
2018-07-07T05:00:17.020Z,78.0
2018-07-07T05:01:17.058Z,78.1
2018-07-07T05:02:16.320Z,77.8
2018-07-07T05:03:16.580Z,75.7
2018-07-07T05:04:16.842Z,75.1
2018-07-07T05:05:17.136Z,75.6
2018-07-07T05:06:16.404Z,74.7
2018-07-07T05:07:16.670Z,74.2
2018-07-07T05:08:16.932Z,73.9
2018-07-07T05:09:17.506Z,73.0
2018-07-07T05:10:16.772Z,72.6
2018-07-07T05:11:16.810Z,71.8
2018-07-07T05:12:17.077Z,71.2
2018-07-07T05:13:16.328Z,70.4
2018-07-07T05:14:16.583Z,70.5
2018-07-07T05:15:16.845Z,70.3
2018-07-07T05:16:17.101Z,69.9
2018-07-07T05:17:16.404Z,69.9
2018-07-07T05:18:16.725Z,68.2
2018-07-07T05:19:16.983Z,68.2
2018-07-07T05:20:17.276Z,66.8
2018-07-07T05:21:16.283Z,66.1
2018-07-07T05:22:16.546Z,64.9
2018-07-07T05:23:16.800Z,66.2
2018-07-07T05:24:17.058Z,65.9
2018-07-07T05:25:16.317Z,65.6
2018-07-07T05:26:16.576Z,61.9
2018-07-07T05:27:16.844Z,62.5
2018-07-07T05:28:17.102Z,61.8
2018-07-07T05:29:16.365Z,61.5
2018-07-07T05:30:16.625Z,62.2
2018-07-07T05:31:16.668Z,61.9
2018-07-07T05:32:16.945Z,61.5
2018-07-07T05:33:17.213Z,61.0
2018-07-07T05:34:16.473Z,61.2
2018-07-07T05:35:16.753Z,59.6
2018-07-07T05:36:17.030Z,59.7
2018-07-07T05:37:16.436Z,58.7
2018-07-07T05:38:16.745Z,56.6
2018-07-07T05:39:17.004Z,56.7
2018-07-07T05:40:16.288Z,56.7
2018-07-07T05:41:16.325Z,56.3
2018-07-07T05:42:16.585Z,56.3
2018-07-07T05:43:16.850Z,54.3
2018-07-07T05:44:17.119Z,54.2
2018-07-07T05:45:16.381Z,53.9
2018-07-07T05:46:16.649Z,53.0
2018-07-07T05:47:16.912Z,52.1
2018-07-07T05:48:17.174Z,52.0
2018-07-07T05:49:16.430Z,50.8
2018-07-07T05:50:16.715Z,51.6
2018-07-07T05:51:16.740Z,51.0
2018-07-07T05:52:17.006Z,49.8
2018-07-07T05:53:16.258Z,49.7
2018-07-07T05:54:16.523Z,50.0
2018-07-07T05:55:16.785Z,49.4
2018-07-07T05:56:17.044Z,49.3
2018-07-07T05:57:16.352Z,50.4
2018-07-07T05:58:16.630Z,49.1
2018-07-07T05:59:16.887Z,48.9
2018-07-07T06:00:17.156Z,48.5
2018-07-07T06:01:17.188Z,49.1
2018-07-07T06:02:16.446Z,48.7
2018-07-07T06:03:16.703Z,48.9
2018-07-07T06:04:16.968Z,50.2
2018-07-07T06:05:17.230Z,48.8
2018-07-07T06:06:16.489Z,49.1
2018-07-07T06:07:16.753Z,48.6
2018-07-07T06:08:17.016Z,48.8
2018-07-07T06:09:16.284Z,49.6
2018-07-07T06:10:16.556Z,49.4
2018-07-07T06:11:16.591Z,48.4
2018-07-07T06:12:16.856Z,47.7
2018-07-07T06:13:17.120Z,47.5
2018-07-07T06:14:16.478Z,48.8
2018-07-07T06:15:16.752Z,51.5
2018-07-07T06:16:17.016Z,52.1
2018-07-07T06:17:16.275Z,50.6
2018-07-07T06:18:16.688Z,49.1
2018-07-07T06:19:16.974Z,48.9
2018-07-07T06:20:17.254Z,48.2
2018-07-07T06:21:16.310Z,48.0
2018-07-07T06:22:16.592Z,47.3
2018-07-07T06:23:16.854Z,47.4
2018-07-07T06:24:17.123Z,45.9
2018-07-07T06:25:16.398Z,46.0
2018-07-07T06:26:16.659Z,44.8
2018-07-07T06:27:16.921Z,43.8
2018-07-07T06:28:17.184Z,43.5
2018-07-07T06:29:16.446Z,43.3
2018-07-07T06:30:16.713Z,42.8
2018-07-07T06:31:16.741Z,42.9
2018-07-07T06:32:17.013Z,43.9
2018-07-07T06:33:16.282Z,43.8
2018-07-07T06:34:16.556Z,44.7
2018-07-07T06:35:16.825Z,46.8
2018-07-07T06:36:17.102Z,44.6
2018-07-07T06:37:16.434Z,44.3
2018-07-07T06:38:16.697Z,44.6
2018-07-07T06:39:16.957Z,44.0
2018-07-07T06:40:17.221Z,43.0
2018-07-07T06:41:16.292Z,42.2
2018-07-07T06:42:16.556Z,41.4
2018-07-07T06:43:16.812Z,42.5
2018-07-07T06:44:17.086Z,42.7
2018-07-07T06:45:16.356Z,43.5
2018-07-07T06:46:16.612Z,43.4
2018-07-07T06:47:16.870Z,43.4
2018-07-07T06:48:17.133Z,43.1
2018-07-07T06:49:16.384Z,42.4
2018-07-07T06:50:16.648Z,43.2
2018-07-07T06:51:16.700Z,43.8
2018-07-07T06:52:16.964Z,43.7
2018-07-07T06:53:17.236Z,43.4
2018-07-07T06:54:16.493Z,42.1
2018-07-07T06:55:16.764Z,40.9
2018-07-07T06:56:17.022Z,41.3
2018-07-07T06:57:16.278Z,40.6
2018-07-07T06:58:16.540Z,40.4
2018-07-07T06:59:16.798Z,40.8
2018-07-07T07:00:17.067Z,39.0
2018-07-07T07:01:17.128Z,38.0
2018-07-07T07:02:16.388Z,38.0
2018-07-07T07:03:16.648Z,39.7
2018-07-07T07:04:16.911Z,37.7
2018-07-07T07:05:17.169Z,36.2
2018-07-07T07:06:16.429Z,36.1
2018-07-07T07:07:16.689Z,33.9
2018-07-07T07:08:16.949Z,34.3
2018-07-07T07:09:17.216Z,34.4
2018-07-07T07:10:16.500Z,32.8
2018-07-07T07:11:16.516Z,32.7
2018-07-07T07:12:16.775Z,32.7
2018-07-07T07:13:17.026Z,31.7
2018-07-07T07:14:16.292Z,32.4
2018-07-07T07:15:16.554Z,31.9
2018-07-07T07:16:16.809Z,32.0
2018-07-07T07:17:17.279Z,31.2
2018-07-07T07:18:16.536Z,30.9
2018-07-07T07:19:16.799Z,30.5
2018-07-07T07:20:17.065Z,30.5
2018-07-07T07:21:17.105Z,29.8
2018-07-07T07:22:16.361Z,32.2
2018-07-07T07:23:16.618Z,32.2
2018-07-07T07:24:16.873Z,31.6
2018-07-07T07:25:17.135Z,32.1
2018-07-07T07:26:16.482Z,31.1
2018-07-07T07:27:16.745Z,30.4
2018-07-07T07:28:17.269Z,32.1
2018-07-07T07:29:16.532Z,34.0
2018-07-07T07:30:16.802Z,35.8
2018-07-07T07:31:16.835Z,34.0
2018-07-07T07:32:17.090Z,32.9
2018-07-07T07:33:16.514Z,32.4
2018-07-07T07:34:16.772Z,30.5
2018-07-07T07:35:17.060Z,29.7
2018-07-07T07:36:16.318Z,30.0
2018-07-07T07:37:16.585Z,31.1
2018-07-07T07:38:16.845Z,31.8
2018-07-07T07:39:17.101Z,32.8
2018-07-07T07:40:16.369Z,33.9
2018-07-07T07:41:16.402Z,33.4
2018-07-07T07:42:16.665Z,32.9
2018-07-07T07:43:17.065Z,31.4
2018-07-07T07:44:16.380Z,29.8
2018-07-07T07:45:16.644Z,31.6
2018-07-07T07:46:16.897Z,31.6
2018-07-07T07:47:17.168Z,29.5
2018-07-07T07:48:16.432Z,29.4
2018-07-07T07:49:16.720Z,29.6
2018-07-07T07:50:16.995Z,32.2
2018-07-07T07:51:17.018Z,29.4
2018-07-07T07:52:16.272Z,29.6
2018-07-07T07:53:16.533Z,28.8
2018-07-07T07:54:16.793Z,28.2
2018-07-07T07:55:17.053Z,29.2
2018-07-07T07:56:16.305Z,28.1
2018-07-07T07:57:16.625Z,28.8
2018-07-07T07:58:16.884Z,28.3
2018-07-07T07:59:17.156Z,28.6
2018-07-07T08:00:16.427Z,30.9
2018-07-07T08:01:16.471Z,31.3
2018-07-07T08:02:16.728Z,31.7
2018-07-07T08:03:16.991Z,30.6
2018-07-07T08:04:16.294Z,30.0
2018-07-07T08:05:16.561Z,27.7
2018-07-07T08:06:16.827Z,27.5
2018-07-07T08:07:17.085Z,27.1
2018-07-07T08:08:16.340Z,26.1
2018-07-07T08:09:16.602Z,28.9
2018-07-07T08:10:16.877Z,26.7
2018-07-07T08:11:16.923Z,26.6
2018-07-07T08:12:17.179Z,25.9
2018-07-07T08:13:16.442Z,26.6
2018-07-07T08:14:16.951Z,27.0
2018-07-07T08:15:17.225Z,25.3
2018-07-07T08:16:16.486Z,25.2
2018-07-07T08:17:16.751Z,25.1
2018-07-07T08:18:17.027Z,25.9
2018-07-07T08:19:16.292Z,26.4
2018-07-07T08:20:16.589Z,27.0
2018-07-07T08:21:16.583Z,27.1
2018-07-07T08:22:17.113Z,28.1
2018-07-07T08:23:16.370Z,28.4
2018-07-07T08:24:16.626Z,29.9
2018-07-07T08:25:16.894Z,30.0
2018-07-07T08:26:17.149Z,29.2
2018-07-07T08:27:16.406Z,28.7
2018-07-07T08:28:16.668Z,27.5
2018-07-07T08:29:16.933Z,26.5
2018-07-07T08:30:17.206Z,25.7
2018-07-07T08:31:17.239Z,26.6
2018-07-07T08:32:16.508Z,26.0
2018-07-07T08:33:16.763Z,25.5
2018-07-07T08:34:17.023Z,26.2
2018-07-07T08:35:16.296Z,25.5
2018-07-07T08:36:16.568Z,24.8
2018-07-07T08:37:16.820Z,26.3
2018-07-07T08:38:17.076Z,25.0
2018-07-07T08:39:16.344Z,24.8
2018-07-07T08:40:16.615Z,26.0
2018-07-07T08:41:16.661Z,26.3
2018-07-07T08:42:16.936Z,25.2
2018-07-07T08:43:17.197Z,25.7
2018-07-07T08:44:16.457Z,25.2
2018-07-07T08:45:16.717Z,25.4
2018-07-07T08:46:16.976Z,25.1
2018-07-07T08:47:17.238Z,25.5
2018-07-07T08:48:16.504Z,24.8
2018-07-07T08:49:16.863Z,24.8
2018-07-07T08:50:17.455Z,23.8
2018-07-07T08:51:17.178Z,25.6
2018-07-07T08:52:16.435Z,26.5
2018-07-07T08:53:16.696Z,26.0
2018-07-07T08:54:16.957Z,26.2
2018-07-07T08:55:17.228Z,25.9
2018-07-07T08:56:16.497Z,27.2
2018-07-07T08:57:16.766Z,25.9
2018-07-07T08:58:17.026Z,27.2
2018-07-07T08:59:16.284Z,27.6
2018-07-07T09:00:16.555Z,28.2
2018-07-07T09:01:16.603Z,26.1
2018-07-07T09:02:17.144Z,26.5
2018-07-07T09:03:16.411Z,28.2
2018-07-07T09:04:16.675Z,28.8
2018-07-07T09:05:16.942Z,30.8
2018-07-07T09:06:17.208Z,30.6
2018-07-07T09:07:16.461Z,31.8
2018-07-07T09:08:16.724Z,31.4
2018-07-07T09:09:16.993Z,31.3
2018-07-07T09:10:16.280Z,30.4
2018-07-07T09:11:16.300Z,29.3
2018-07-07T09:12:16.560Z,28.5
2018-07-07T09:13:16.824Z,28.3
2018-07-07T09:14:17.209Z,28.2
2018-07-07T09:15:16.503Z,28.1
2018-07-07T09:16:16.772Z,27.3
2018-07-07T09:17:17.033Z,26.9
2018-07-07T09:18:16.290Z,27.5
2018-07-07T09:19:16.550Z,27.9
2018-07-07T09:20:16.810Z,28.9
2018-07-07T09:21:17.000Z,29.0
2018-07-07T09:22:16.278Z,29.0
2018-07-07T09:23:16.556Z,29.0
2018-07-07T09:24:16.819Z,29.7
2018-07-07T09:25:17.088Z,28.6
2018-07-07T09:26:16.341Z,30.1
2018-07-07T09:27:16.597Z,30.0
2018-07-07T09:28:16.856Z,29.5
2018-07-07T09:29:17.112Z,29.0
2018-07-07T09:30:16.384Z,28.1
2018-07-07T09:31:16.424Z,29.2
2018-07-07T09:32:16.684Z,29.5
2018-07-07T09:33:16.945Z,31.5
2018-07-07T09:34:17.229Z,32.5
2018-07-07T09:35:16.495Z,33.4
2018-07-07T09:36:16.755Z,33.4
2018-07-07T09:37:17.015Z,32.4
2018-07-07T09:38:16.284Z,29.5
2018-07-07T09:39:16.548Z,29.6
2018-07-07T09:40:16.824Z,29.4
2018-07-07T09:41:16.864Z,28.9
2018-07-07T09:42:17.144Z,28.1
2018-07-07T09:43:16.406Z,27.6
2018-07-07T09:44:16.668Z,30.4
2018-07-07T09:45:16.921Z,32.0
2018-07-07T09:46:17.173Z,31.1
2018-07-07T09:47:16.438Z,30.5
2018-07-07T09:48:16.710Z,31.1
2018-07-07T09:49:16.968Z,32.3
2018-07-07T09:50:17.245Z,30.4
2018-07-07T09:51:16.267Z,30.5
2018-07-07T09:52:16.527Z,30.1
2018-07-07T09:53:16.804Z,29.5
2018-07-07T09:54:17.061Z,29.6
2018-07-07T09:55:16.330Z,28.6
2018-07-07T09:56:16.731Z,28.4
2018-07-07T09:57:17.014Z,28.3
2018-07-07T09:58:16.270Z,26.7
2018-07-07T09:59:16.534Z,27.1
2018-07-07T10:00:16.807Z,26.5
2018-07-07T10:01:16.854Z,26.6
2018-07-07T10:02:17.119Z,26.7
2018-07-07T10:03:16.377Z,27.9
2018-07-07T10:04:16.628Z,30.0
2018-07-07T10:05:16.888Z,29.3
2018-07-07T10:06:17.157Z,27.3
2018-07-07T10:07:16.418Z,25.6
2018-07-07T10:08:16.676Z,26.6
2018-07-07T10:09:16.935Z,25.9
2018-07-07T10:10:17.224Z,25.7
2018-07-07T10:11:16.256Z,25.0
2018-07-07T10:12:16.523Z,24.8
2018-07-07T10:13:16.776Z,25.6
2018-07-07T10:14:17.079Z,25.6
2018-07-07T10:15:16.344Z,26.7
2018-07-07T10:16:16.617Z,24.8
2018-07-07T10:17:16.871Z,26.1
2018-07-07T10:18:17.133Z,25.1
2018-07-07T10:19:16.393Z,26.8
2018-07-07T10:20:16.666Z,29.3
2018-07-07T10:21:16.718Z,28.9
2018-07-07T10:22:16.975Z,25.2
2018-07-07T10:23:17.251Z,24.4
2018-07-07T10:24:16.501Z,25.9
2018-07-07T10:25:16.771Z,26.0
2018-07-07T10:26:17.418Z,28.0
2018-07-07T10:27:16.745Z,28.3
2018-07-07T10:28:17.010Z,25.3
2018-07-07T10:29:16.271Z,25.5
2018-07-07T10:30:16.551Z,25.0
2018-07-07T10:31:16.588Z,27.8
2018-07-07T10:32:16.863Z,26.5
2018-07-07T10:33:17.125Z,25.9
2018-07-07T10:34:16.392Z,25.9
2018-07-07T10:35:16.643Z,25.6
2018-07-07T10:36:16.897Z,25.8
2018-07-07T10:37:17.177Z,24.7
2018-07-07T10:38:16.614Z,25.0
2018-07-07T10:39:16.906Z,25.7
2018-07-07T10:40:17.183Z,24.4
2018-07-07T10:41:17.267Z,24.7
2018-07-07T10:42:16.527Z,24.4
2018-07-07T10:43:16.785Z,24.2
2018-07-07T10:44:17.053Z,23.3
2018-07-07T10:45:16.345Z,23.9
2018-07-07T10:46:16.614Z,24.1
2018-07-07T10:47:16.982Z,24.8
2018-07-07T10:48:17.250Z,26.6
2018-07-07T10:49:16.517Z,23.3
2018-07-07T10:50:16.789Z,23.5
2018-07-07T10:51:16.838Z,23.8
2018-07-07T10:52:17.104Z,25.0
2018-07-07T10:53:16.368Z,24.4
2018-07-07T10:54:16.634Z,24.4
2018-07-07T10:55:16.917Z,24.4
2018-07-07T10:56:17.186Z,24.2
2018-07-07T10:57:16.452Z,24.8
2018-07-07T10:58:16.719Z,24.3
2018-07-07T10:59:16.977Z,24.0
2018-07-07T11:00:17.252Z,23.2
2018-07-07T11:01:16.305Z,23.5
2018-07-07T11:02:16.575Z,23.7
2018-07-07T11:03:16.834Z,23.6
2018-07-07T11:04:17.244Z,24.0
2018-07-07T11:05:16.577Z,24.1
2018-07-07T11:06:16.843Z,23.7
2018-07-07T11:07:17.100Z,23.3
2018-07-07T11:08:16.365Z,22.8
2018-07-07T11:09:16.614Z,24.8
2018-07-07T11:10:16.871Z,24.1
2018-07-07T11:11:16.921Z,22.9
2018-07-07T11:12:17.181Z,24.3
2018-07-07T11:13:16.435Z,23.0
2018-07-07T11:14:16.706Z,22.7
2018-07-07T11:15:16.965Z,22.7
2018-07-07T11:16:17.264Z,24.8
2018-07-07T11:17:16.522Z,26.8
2018-07-07T11:18:16.779Z,27.7
2018-07-07T11:19:17.044Z,28.8
2018-07-07T11:20:16.329Z,28.0
2018-07-07T11:21:16.364Z,27.5
2018-07-07T11:22:16.625Z,27.5
2018-07-07T11:23:16.875Z,26.1
2018-07-07T11:24:17.151Z,26.0
2018-07-07T11:25:16.405Z,26.1
2018-07-07T11:26:16.680Z,24.7
2018-07-07T11:27:16.941Z,27.1
2018-07-07T11:28:17.486Z,23.1
2018-07-07T11:29:16.745Z,22.4
2018-07-07T11:30:17.057Z,23.2
2018-07-07T11:31:17.072Z,22.0
2018-07-07T11:32:16.333Z,24.1
2018-07-07T11:33:16.592Z,23.0
2018-07-07T11:34:16.956Z,23.5
2018-07-07T11:35:17.226Z,23.0
2018-07-07T11:36:16.660Z,23.3
2018-07-07T11:37:16.944Z,23.1
2018-07-07T11:38:17.213Z,22.9
2018-07-07T11:39:16.469Z,25.1
2018-07-07T11:40:16.729Z,26.3
2018-07-07T11:41:16.791Z,25.5
2018-07-07T11:42:17.118Z,29.0
2018-07-07T11:43:16.435Z,26.5
2018-07-07T11:44:16.709Z,26.4
2018-07-07T11:45:16.984Z,26.0
2018-07-07T11:46:17.257Z,25.1
2018-07-07T11:47:16.512Z,25.3
2018-07-07T11:48:16.780Z,23.9
2018-07-07T11:49:17.041Z,26.0
2018-07-07T11:50:16.516Z,26.2
2018-07-07T11:51:16.356Z,26.4
2018-07-07T11:52:16.619Z,26.0
2018-07-07T11:53:16.882Z,26.4
2018-07-07T11:54:17.144Z,26.7
2018-07-07T11:55:16.414Z,26.2
2018-07-07T11:56:16.681Z,25.8
2018-07-07T11:57:17.077Z,26.3
2018-07-07T11:58:16.407Z,26.4
2018-07-07T11:59:16.669Z,27.7
2018-07-07T12:00:16.946Z,27.9
2018-07-07T12:01:16.991Z,28.3
2018-07-07T12:02:17.257Z,28.5
2018-07-07T12:03:16.521Z,28.2
2018-07-07T12:04:16.778Z,27.9
2018-07-07T12:05:17.041Z,28.8
2018-07-07T12:06:16.293Z,30.2
2018-07-07T12:07:16.551Z,28.9
2018-07-07T12:08:16.903Z,29.6
2018-07-07T12:09:17.173Z,30.1
2018-07-07T12:10:16.440Z,30.5
2018-07-07T12:11:16.527Z,31.8
2018-07-07T12:12:16.812Z,31.2
2018-07-07T12:13:17.075Z,31.6
2018-07-07T12:14:16.340Z,30.9
2018-07-07T12:15:16.604Z,31.4
2018-07-07T12:16:16.868Z,31.7
2018-07-07T12:17:17.188Z,31.1
2018-07-07T12:18:16.455Z,30.9
2018-07-07T12:19:16.713Z,30.7
2018-07-07T12:20:16.994Z,32.0
2018-07-07T12:21:17.028Z,32.1
2018-07-07T12:22:16.287Z,32.5
2018-07-07T12:23:16.550Z,32.4
2018-07-07T12:24:16.810Z,32.2
2018-07-07T12:25:17.074Z,32.2
2018-07-07T12:26:16.336Z,31.9
2018-07-07T12:27:16.600Z,31.9
2018-07-07T12:28:16.862Z,32.6
2018-07-07T12:29:17.118Z,32.8
2018-07-07T12:30:16.386Z,32.2
2018-07-07T12:31:16.501Z,32.5
2018-07-07T12:32:16.759Z,32.7
2018-07-07T12:33:17.248Z,32.8
2018-07-07T12:34:16.518Z,33.4
2018-07-07T12:35:16.787Z,33.7
2018-07-07T12:36:17.041Z,33.6
2018-07-07T12:37:16.297Z,32.0
2018-07-07T12:38:16.560Z,32.4
2018-07-07T12:39:17.003Z,32.5
2018-07-07T12:40:16.299Z,33.5
2018-07-07T12:41:16.326Z,33.7
2018-07-07T12:42:16.590Z,33.3
2018-07-07T12:43:16.851Z,33.8
2018-07-07T12:44:17.116Z,32.4
2018-07-07T12:45:16.382Z,32.8
2018-07-07T12:46:16.642Z,33.6
2018-07-07T12:47:16.907Z,33.1
2018-07-07T12:48:17.173Z,32.6
2018-07-07T12:49:16.435Z,32.8
2018-07-07T12:50:16.701Z,32.6
2018-07-07T12:51:16.751Z,33.1
2018-07-07T12:52:17.026Z,33.2
2018-07-07T12:53:16.287Z,33.9
2018-07-07T12:54:16.552Z,33.6
2018-07-07T12:55:16.814Z,33.0
2018-07-07T12:56:17.077Z,33.1
2018-07-07T12:57:16.322Z,33.0
2018-07-07T12:58:16.585Z,33.8
2018-07-07T12:59:16.855Z,34.5
2018-07-07T13:00:17.128Z,33.8
2018-07-07T13:01:17.273Z,33.5
2018-07-07T13:02:16.604Z,33.8
2018-07-07T13:03:16.859Z,32.8
2018-07-07T13:04:17.115Z,33.6
2018-07-07T13:05:16.381Z,33.6
2018-07-07T13:06:16.647Z,34.0
2018-07-07T13:07:16.908Z,33.5
2018-07-07T13:08:17.179Z,34.0
2018-07-07T13:09:16.435Z,34.4
2018-07-07T13:10:16.696Z,34.3
2018-07-07T13:11:16.743Z,34.4
2018-07-07T13:12:17.003Z,33.2
2018-07-07T13:13:16.257Z,33.2
2018-07-07T13:14:16.539Z,33.4
2018-07-07T13:15:16.805Z,33.4
2018-07-07T13:16:17.067Z,34.0
2018-07-07T13:17:16.318Z,34.5
2018-07-07T13:18:16.577Z,33.5